sensor_id;sensor_type;location;lat;lon;timestamp;P1;durP1;ratioP1;P2;durP2;ratioP2
60426;SDS011;46274;47.168;27.604;2023-02-23T00:05:34;7.27;;;3.00;;
60426;SDS011;46274;47.168;27.604;2023-02-23T00:11:41;6.07;;;3.10;;
60426;SDS011;46274;47.168;27.604;2023-02-23T00:17:46;8.77;;;2.97;;
60426;SDS011;46274;47.168;27.604;2023-02-23T00:23:56;5.17;;;2.40;;
60426;SDS011;46274;47.168;27.604;2023-02-23T00:30:00;4.80;;;2.00;;
60426;SDS011;46274;47.168;27.604;2023-02-23T00:36:07;3.83;;;2.07;;
60426;SDS011;46274;47.168;27.604;2023-02-23T00:42:16;4.73;;;2.17;;
60426;SDS011;46274;47.168;27.604;2023-02-23T00:48:24;7.47;;;2.40;;
60426;SDS011;46274;47.168;27.604;2023-02-23T00:54:29;4.23;;;2.13;;
60426;SDS011;46274;47.168;27.604;2023-02-23T01:00:32;7.67;;;2.53;;
60426;SDS011;46274;47.168;27.604;2023-02-23T01:06:34;5.20;;;2.70;;
60426;SDS011;46274;47.168;27.604;2023-02-23T01:12:41;6.67;;;2.60;;
60426;SDS011;46274;47.168;27.604;2023-02-23T01:18:43;5.77;;;2.87;;
60426;SDS011;46274;47.168;27.604;2023-02-23T01:24:54;6.20;;;3.00;;
60426;SDS011;46274;47.168;27.604;2023-02-23T01:31:01;8.67;;;3.43;;
60426;SDS011;46274;47.168;27.604;2023-02-23T01:37:09;7.30;;;2.87;;
60426;SDS011;46274;47.168;27.604;2023-02-23T01:43:13;6.93;;;2.90;;
60426;SDS011;46274;47.168;27.604;2023-02-23T01:49:27;7.73;;;3.70;;
60426;SDS011;46274;47.168;27.604;2023-02-23T01:55:31;7.43;;;3.97;;
60426;SDS011;46274;47.168;27.604;2023-02-23T02:01:36;14.43;;;5.80;;
60426;SDS011;46274;47.168;27.604;2023-02-23T02:07:41;6.67;;;3.30;;
60426;SDS011;46274;47.168;27.604;2023-02-23T02:13:48;7.37;;;3.40;;
60426;SDS011;46274;47.168;27.604;2023-02-23T02:20:37;7.10;;;3.70;;
60426;SDS011;46274;47.168;27.604;2023-02-23T02:45:42;8.20;;;3.57;;
60426;SDS011;46274;47.168;27.604;2023-02-23T02:58:19;16.67;;;6.60;;
60426;SDS011;46274;47.168;27.604;2023-02-23T03:04:24;7.70;;;3.70;;
60426;SDS011;46274;47.168;27.604;2023-02-23T03:17:41;7.27;;;3.00;;
60426;SDS011;46274;47.168;27.604;2023-02-23T03:37:28;8.60;;;3.93;;
60426;SDS011;46274;47.168;27.604;2023-02-23T03:43:58;11.30;;;4.80;;
60426;SDS011;46274;47.168;27.604;2023-02-23T03:50:31;8.70;;;4.17;;
60426;SDS011;46274;47.168;27.604;2023-02-23T03:56:57;8.43;;;3.50;;
60426;SDS011;46274;47.168;27.604;2023-02-23T04:03:20;6.43;;;3.00;;
60426;SDS011;46274;47.168;27.604;2023-02-23T04:09:42;6.73;;;3.50;;
60426;SDS011;46274;47.168;27.604;2023-02-23T04:16:05;8.90;;;4.17;;
60426;SDS011;46274;47.168;27.604;2023-02-23T04:22:12;7.83;;;4.10;;
60426;SDS011;46274;47.168;27.604;2023-02-23T04:28:15;7.57;;;3.17;;
60426;SDS011;46274;47.168;27.604;2023-02-23T04:34:17;6.87;;;3.60;;
60426;SDS011;46274;47.168;27.604;2023-02-23T04:40:23;8.37;;;3.43;;
60426;SDS011;46274;47.168;27.604;2023-02-23T04:46:30;14.30;;;4.47;;
60426;SDS011;46274;47.168;27.604;2023-02-23T04:52:33;12.37;;;4.27;;
60426;SDS011;46274;47.168;27.604;2023-02-23T04:58:37;9.70;;;4.40;;
60426;SDS011;46274;47.168;27.604;2023-02-23T05:04:40;7.83;;;3.97;;
60426;SDS011;46274;47.168;27.604;2023-02-23T05:10:42;13.03;;;4.70;;
60426;SDS011;46274;47.168;27.604;2023-02-23T05:17:00;13.60;;;4.77;;
60426;SDS011;46274;47.168;27.604;2023-02-23T05:23:02;9.63;;;4.40;;
60426;SDS011;46274;47.168;27.604;2023-02-23T05:29:05;8.30;;;4.00;;
60426;SDS011;46274;47.168;27.604;2023-02-23T05:35:11;9.23;;;3.60;;
60426;SDS011;46274;47.168;27.604;2023-02-23T05:41:15;10.87;;;4.20;;
60426;SDS011;46274;47.168;27.604;2023-02-23T05:47:22;7.50;;;3.53;;
60426;SDS011;46274;47.168;27.604;2023-02-23T05:53:24;17.43;;;7.37;;
60426;SDS011;46274;47.168;27.604;2023-02-23T05:59:33;13.83;;;6.63;;
60426;SDS011;46274;47.168;27.604;2023-02-23T06:05:38;10.87;;;5.53;;
60426;SDS011;46274;47.168;27.604;2023-02-23T06:11:44;18.60;;;4.53;;
60426;SDS011;46274;47.168;27.604;2023-02-23T06:17:47;9.20;;;4.57;;
60426;SDS011;46274;47.168;27.604;2023-02-23T06:23:56;10.90;;;4.60;;
60426;SDS011;46274;47.168;27.604;2023-02-23T06:30:01;10.83;;;5.00;;
60426;SDS011;46274;47.168;27.604;2023-02-23T06:36:05;42.40;;;19.97;;
60426;SDS011;46274;47.168;27.604;2023-02-23T06:42:13;15.63;;;5.23;;
60426;SDS011;46274;47.168;27.604;2023-02-23T06:48:32;11.67;;;3.83;;
60426;SDS011;46274;47.168;27.604;2023-02-23T06:54:34;6.90;;;3.83;;
60426;SDS011;46274;47.168;27.604;2023-02-23T07:00:42;9.63;;;5.13;;
60426;SDS011;46274;47.168;27.604;2023-02-23T07:06:45;10.63;;;4.93;;
60426;SDS011;46274;47.168;27.604;2023-02-23T07:12:52;14.53;;;5.87;;
60426;SDS011;46274;47.168;27.604;2023-02-23T07:18:55;17.47;;;7.93;;
60426;SDS011;46274;47.168;27.604;2023-02-23T07:25:05;18.67;;;8.80;;
60426;SDS011;46274;47.168;27.604;2023-02-23T07:31:12;12.37;;;5.50;;
60426;SDS011;46274;47.168;27.604;2023-02-23T07:37:15;12.40;;;5.73;;
60426;SDS011;46274;47.168;27.604;2023-02-23T07:43:18;14.30;;;5.63;;
60426;SDS011;46274;47.168;27.604;2023-02-23T07:49:25;13.47;;;5.97;;
60426;SDS011;46274;47.168;27.604;2023-02-23T07:55:27;12.50;;;5.43;;
60426;SDS011;46274;47.168;27.604;2023-02-23T08:01:32;11.10;;;5.97;;
60426;SDS011;46274;47.168;27.604;2023-02-23T08:07:37;18.80;;;8.37;;
60426;SDS011;46274;47.168;27.604;2023-02-23T08:13:39;16.50;;;7.07;;
60426;SDS011;46274;47.168;27.604;2023-02-23T08:19:56;23.13;;;7.90;;
60426;SDS011;46274;47.168;27.604;2023-02-23T08:26:11;18.63;;;7.80;;
60426;SDS011;46274;47.168;27.604;2023-02-23T08:45:01;21.07;;;8.17;;
60426;SDS011;46274;47.168;27.604;2023-02-23T08:51:10;21.83;;;7.40;;
60426;SDS011;46274;47.168;27.604;2023-02-23T09:03:39;20.00;;;8.10;;
60426;SDS011;46274;47.168;27.604;2023-02-23T09:09:55;10.67;;;4.77;;
60426;SDS011;46274;47.168;27.604;2023-02-23T09:28:38;16.27;;;6.83;;
60426;SDS011;46274;47.168;27.604;2023-02-23T09:34:43;16.30;;;6.83;;
60426;SDS011;46274;47.168;27.604;2023-02-23T09:40:47;10.27;;;4.83;;
60426;SDS011;46274;47.168;27.604;2023-02-23T10:20:09;13.70;;;6.07;;
60426;SDS011;46274;47.168;27.604;2023-02-23T10:26:28;30.43;;;15.13;;
60426;SDS011;46274;47.168;27.604;2023-02-23T10:45:28;16.73;;;6.70;;
60426;SDS011;46274;47.168;27.604;2023-02-23T10:51:35;8.30;;;3.90;;
60426;SDS011;46274;47.168;27.604;2023-02-23T10:57:41;9.53;;;4.73;;
60426;SDS011;46274;47.168;27.604;2023-02-23T11:04:11;9.90;;;4.27;;
60426;SDS011;46274;47.168;27.604;2023-02-23T11:10:38;10.23;;;4.63;;
60426;SDS011;46274;47.168;27.604;2023-02-23T11:16:54;16.73;;;6.53;;
60426;SDS011;46274;47.168;27.604;2023-02-23T11:23:08;11.97;;;5.40;;
60426;SDS011;46274;47.168;27.604;2023-02-23T11:29:32;15.13;;;5.87;;
60426;SDS011;46274;47.168;27.604;2023-02-23T11:35:42;13.50;;;5.83;;
60426;SDS011;46274;47.168;27.604;2023-02-23T11:48:34;14.53;;;4.57;;
60426;SDS011;46274;47.168;27.604;2023-02-23T11:54:55;11.23;;;4.83;;
60426;SDS011;46274;47.168;27.604;2023-02-23T12:01:06;9.53;;;4.67;;
60426;SDS011;46274;47.168;27.604;2023-02-23T12:07:38;12.43;;;5.13;;
60426;SDS011;46274;47.168;27.604;2023-02-23T12:13:51;12.17;;;5.20;;
60426;SDS011;46274;47.168;27.604;2023-02-23T12:20:10;12.23;;;5.57;;
60426;SDS011;46274;47.168;27.604;2023-02-23T12:26:21;14.70;;;5.60;;
60426;SDS011;46274;47.168;27.604;2023-02-23T12:32:38;12.53;;;5.03;;
60426;SDS011;46274;47.168;27.604;2023-02-23T12:38:56;11.33;;;5.50;;
60426;SDS011;46274;47.168;27.604;2023-02-23T12:45:05;13.40;;;6.30;;
60426;SDS011;46274;47.168;27.604;2023-02-23T12:57:34;12.47;;;6.43;;
60426;SDS011;46274;47.168;27.604;2023-02-23T13:03:54;15.00;;;7.50;;
60426;SDS011;46274;47.168;27.604;2023-02-23T13:10:12;15.23;;;5.93;;
60426;SDS011;46274;47.168;27.604;2023-02-23T13:16:43;18.33;;;6.83;;
60426;SDS011;46274;47.168;27.604;2023-02-23T13:35:53;18.50;;;7.73;;
60426;SDS011;46274;47.168;27.604;2023-02-23T13:54:58;13.93;;;6.93;;
60426;SDS011;46274;47.168;27.604;2023-02-23T14:01:17;14.07;;;6.90;;
60426;SDS011;46274;47.168;27.604;2023-02-23T14:07:31;18.97;;;7.73;;
60426;SDS011;46274;47.168;27.604;2023-02-23T14:13:58;13.30;;;6.77;;
60426;SDS011;46274;47.168;27.604;2023-02-23T14:32:36;13.90;;;6.53;;
60426;SDS011;46274;47.168;27.604;2023-02-23T14:45:02;13.53;;;6.80;;
60426;SDS011;46274;47.168;27.604;2023-02-23T14:51:19;13.90;;;6.67;;
60426;SDS011;46274;47.168;27.604;2023-02-23T14:57:24;17.50;;;6.70;;
60426;SDS011;46274;47.168;27.604;2023-02-23T15:03:30;16.97;;;7.80;;
60426;SDS011;46274;47.168;27.604;2023-02-23T15:09:38;17.23;;;6.77;;
60426;SDS011;46274;47.168;27.604;2023-02-23T15:15:57;15.70;;;7.27;;
60426;SDS011;46274;47.168;27.604;2023-02-23T15:22:21;14.10;;;6.63;;
60426;SDS011;46274;47.168;27.604;2023-02-23T15:28:45;18.77;;;6.47;;
60426;SDS011;46274;47.168;27.604;2023-02-23T15:34:54;15.20;;;6.43;;
60426;SDS011;46274;47.168;27.604;2023-02-23T15:41:07;15.57;;;6.77;;
60426;SDS011;46274;47.168;27.604;2023-02-23T15:47:30;16.50;;;6.50;;
60426;SDS011;46274;47.168;27.604;2023-02-23T15:53:39;17.73;;;6.27;;
60426;SDS011;46274;47.168;27.604;2023-02-23T15:59:48;14.27;;;6.47;;
60426;SDS011;46274;47.168;27.604;2023-02-23T16:12:28;12.20;;;5.87;;
60426;SDS011;46274;47.168;27.604;2023-02-23T16:18:37;17.60;;;6.67;;
60426;SDS011;46274;47.168;27.604;2023-02-23T16:24:41;18.87;;;7.93;;
60426;SDS011;46274;47.168;27.604;2023-02-23T16:31:01;36.07;;;12.17;;
60426;SDS011;46274;47.168;27.604;2023-02-23T16:37:18;21.37;;;9.90;;
60426;SDS011;46274;47.168;27.604;2023-02-23T16:43:31;20.13;;;7.33;;
60426;SDS011;46274;47.168;27.604;2023-02-23T16:49:44;17.67;;;7.63;;
60426;SDS011;46274;47.168;27.604;2023-02-23T16:55:59;20.00;;;8.13;;
60426;SDS011;46274;47.168;27.604;2023-02-23T17:02:10;15.67;;;7.03;;
60426;SDS011;46274;47.168;27.604;2023-02-23T17:08:56;18.80;;;8.13;;
60426;SDS011;46274;47.168;27.604;2023-02-23T17:14:59;19.97;;;8.13;;
60426;SDS011;46274;47.168;27.604;2023-02-23T17:21:02;19.67;;;6.83;;
60426;SDS011;46274;47.168;27.604;2023-02-23T17:27:29;17.73;;;7.30;;
60426;SDS011;46274;47.168;27.604;2023-02-23T17:33:39;17.83;;;7.40;;
60426;SDS011;46274;47.168;27.604;2023-02-23T17:40:08;16.23;;;7.77;;
60426;SDS011;46274;47.168;27.604;2023-02-23T17:46:19;18.13;;;8.07;;
60426;SDS011;46274;47.168;27.604;2023-02-23T17:52:31;26.07;;;10.10;;
60426;SDS011;46274;47.168;27.604;2023-02-23T17:58:42;22.13;;;9.27;;
60426;SDS011;46274;47.168;27.604;2023-02-23T18:04:55;21.03;;;9.73;;
60426;SDS011;46274;47.168;27.604;2023-02-23T18:11:07;19.37;;;9.20;;
60426;SDS011;46274;47.168;27.604;2023-02-23T18:17:10;33.20;;;8.87;;
60426;SDS011;46274;47.168;27.604;2023-02-23T18:23:29;19.10;;;8.77;;
60426;SDS011;46274;47.168;27.604;2023-02-23T18:29:42;26.40;;;9.77;;
60426;SDS011;46274;47.168;27.604;2023-02-23T18:35:54;19.17;;;8.47;;
60426;SDS011;46274;47.168;27.604;2023-02-23T18:42:10;18.63;;;8.70;;
60426;SDS011;46274;47.168;27.604;2023-02-23T18:48:22;19.00;;;8.00;;
60426;SDS011;46274;47.168;27.604;2023-02-23T18:54:27;17.50;;;7.57;;
60426;SDS011;46274;47.168;27.604;2023-02-23T19:00:50;18.37;;;8.10;;
60426;SDS011;46274;47.168;27.604;2023-02-23T19:07:13;17.73;;;7.70;;
60426;SDS011;46274;47.168;27.604;2023-02-23T19:13:29;15.93;;;6.80;;
60426;SDS011;46274;47.168;27.604;2023-02-23T19:19:32;14.50;;;7.07;;
60426;SDS011;46274;47.168;27.604;2023-02-23T19:25:38;15.87;;;6.87;;
60426;SDS011;46274;47.168;27.604;2023-02-23T19:31:49;17.03;;;6.70;;
60426;SDS011;46274;47.168;27.604;2023-02-23T19:38:05;17.70;;;6.93;;
60426;SDS011;46274;47.168;27.604;2023-02-23T19:44:14;16.73;;;7.13;;
60426;SDS011;46274;47.168;27.604;2023-02-23T19:50:38;18.10;;;7.07;;
60426;SDS011;46274;47.168;27.604;2023-02-23T19:56:48;12.63;;;6.50;;
60426;SDS011;46274;47.168;27.604;2023-02-23T20:02:52;15.13;;;6.30;;
60426;SDS011;46274;47.168;27.604;2023-02-23T20:09:22;15.00;;;7.00;;
60426;SDS011;46274;47.168;27.604;2023-02-23T20:15:30;15.83;;;7.77;;
60426;SDS011;46274;47.168;27.604;2023-02-23T20:21:49;17.23;;;6.90;;
60426;SDS011;46274;47.168;27.604;2023-02-23T20:28:04;16.47;;;6.53;;
60426;SDS011;46274;47.168;27.604;2023-02-23T20:34:11;15.80;;;7.90;;
60426;SDS011;46274;47.168;27.604;2023-02-23T20:40:30;14.70;;;7.83;;
60426;SDS011;46274;47.168;27.604;2023-02-23T20:46:41;20.20;;;8.17;;
60426;SDS011;46274;47.168;27.604;2023-02-23T20:52:58;16.90;;;7.83;;
60426;SDS011;46274;47.168;27.604;2023-02-23T20:59:10;18.57;;;8.33;;
60426;SDS011;46274;47.168;27.604;2023-02-23T21:05:24;19.03;;;8.87;;
60426;SDS011;46274;47.168;27.604;2023-02-23T21:11:39;22.67;;;8.23;;
60426;SDS011;46274;47.168;27.604;2023-02-23T21:17:41;15.67;;;7.83;;
60426;SDS011;46274;47.168;27.604;2023-02-23T21:23:43;23.43;;;8.80;;
60426;SDS011;46274;47.168;27.604;2023-02-23T21:29:56;24.57;;;9.40;;
60426;SDS011;46274;47.168;27.604;2023-02-23T21:36:07;19.90;;;9.60;;
60426;SDS011;46274;47.168;27.604;2023-02-23T21:42:11;22.13;;;9.03;;
60426;SDS011;46274;47.168;27.604;2023-02-23T21:48:24;22.67;;;9.03;;
60426;SDS011;46274;47.168;27.604;2023-02-23T21:54:29;19.23;;;8.13;;
60426;SDS011;46274;47.168;27.604;2023-02-23T22:00:33;18.13;;;8.07;;
60426;SDS011;46274;47.168;27.604;2023-02-23T22:06:45;21.30;;;8.50;;
60426;SDS011;46274;47.168;27.604;2023-02-23T22:12:56;20.90;;;8.00;;
60426;SDS011;46274;47.168;27.604;2023-02-23T22:19:14;21.40;;;7.93;;
60426;SDS011;46274;47.168;27.604;2023-02-23T22:25:27;15.10;;;7.40;;
60426;SDS011;46274;47.168;27.604;2023-02-23T22:31:31;16.60;;;8.53;;
60426;SDS011;46274;47.168;27.604;2023-02-23T22:37:34;21.30;;;8.37;;
60426;SDS011;46274;47.168;27.604;2023-02-23T22:43:43;24.37;;;8.33;;
60426;SDS011;46274;47.168;27.604;2023-02-23T22:50:00;20.67;;;8.40;;
60426;SDS011;46274;47.168;27.604;2023-02-23T22:56:03;17.10;;;7.70;;
60426;SDS011;46274;47.168;27.604;2023-02-23T23:02:14;20.73;;;9.17;;
60426;SDS011;46274;47.168;27.604;2023-02-23T23:08:24;18.93;;;6.77;;
60426;SDS011;46274;47.168;27.604;2023-02-23T23:14:33;17.23;;;7.30;;
60426;SDS011;46274;47.168;27.604;2023-02-23T23:20:43;15.17;;;6.87;;
60426;SDS011;46274;47.168;27.604;2023-02-23T23:27:00;15.50;;;5.97;;
60426;SDS011;46274;47.168;27.604;2023-02-23T23:33:18;12.13;;;6.33;;
60426;SDS011;46274;47.168;27.604;2023-02-23T23:39:23;14.07;;;6.30;;
60426;SDS011;46274;47.168;27.604;2023-02-23T23:45:49;17.20;;;7.60;;
60426;SDS011;46274;47.168;27.604;2023-02-23T23:52:02;14.33;;;7.17;;
60426;SDS011;46274;47.168;27.604;2023-02-23T23:58:40;14.63;;;6.80;;
